(°C)
-3°
-3°
-3°
-3°
-2°
-2°
-2°
(°C)
-9°
-10°
-10°
-10°
-10°
-10°
-10°
NO
NO
NO
NO
NNO
NNO
NNO
(km/h)
16-26
16-26
17-27
18-29
20-30
20-30
21-30
(mm)
0
0
0
0
0
0
0
(%)
0
0
0
0
0
0
0

Élévation du soleil

/ -3.8°
sun-icon
UV 1
06:57
16:49
Dernier croissant (282°)
01:07
11:26

METAR pour Barnstable (KHYA)

Heure Conditions Température/
Point de rosée
Vent Visibilité Météo Nuages Pression Changement Brut
VFR -2.2°C / °C 330º 9kt Gust 19kt >10km - Clear 1021 - KHYA 261056Z 33009G19KT 10SM CLR M02/M11 A3015 RMK AO2 SLP210 T10221106
VFR -1.7°C / °C 340º 12kt >10km - Scattered Clouds 3900ft 1020 - KHYA 260956Z AUTO 34012KT 10SM SCT039 M02/M10 A3013 RMK AO2 SLP204 T10171100
VFR -1.7°C / -9.4°C 310º 8kt >10km - Clear 1020 - KHYA 260856Z AUTO 31008KT 10SM CLR M02/M09 A3012 RMK AO2 SLP200 T10171094 51015
VFR -1.7°C / °C 300º 7kt >10km - Clear 1019 - KHYA 260756Z AUTO 30007KT 10SM CLR M02/M10 A3011 RMK AO2 SLP196 T10171100
VFR -1.1°C / °C 320º 7kt >10km - Clear 1018 - KHYA 260656Z AUTO 32007KT 10SM CLR M01/M11 A3008 RMK AO2 SLP188 T10111106
VFR -0.6°C / °C 320º 7kt >10km - Clear 1018 - KHYA 260556Z AUTO 32007KT 10SM CLR M01/M10 A3007 RMK AO2 SLP184 T10061100 10044 21006 51005
VFR 0°C / °C 320º 8kt >10km - Clear 1018 - KHYA 260456Z AUTO 32008KT 10SM CLR 00/M11 A3007 RMK AO2 SLP182 T00001106 400780000
VFR 0.6°C / °C 330º 9kt >10km - Clear 1018 - KHYA 260356Z AUTO 33009KT 10SM CLR 01/M11 A3006 RMK AO2 SLP181 T00061106
VFR 1.7°C / -8.3°C 330º 8kt Gust 17kt >10km - Clear 1017 - KHYA 260256Z 33008G17KT 10SM CLR 02/M08 A3006 RMK AO2 SLP179 T00171083 53024
VFR 2.2°C / -5°C 330º 7kt >10km - Scattered Clouds 4400ft 1017 - KHYA 260156Z 33007KT 10SM SCT044 02/M05 A3003 RMK AO2 SLP171 T00221050
VFR 3.3°C / -3.3°C 340º 6kt >10km - Scattered Clouds 6000ft
Broken Clouds 7500ft
1016 - KHYA 260056Z 34006KT 10SM SCT060 BKN075 03/M03 A3001 RMK AO2 SLP162 T00331033
VFR 4.4°C / -1.1°C variable 4kt >10km - Overcast 5500ft 1015 - KHYA 252356Z VRB04KT 10SM OVC055 04/M01 A2999 RMK AO2 SLP155 T00441011 10078 20039 53021
VFR 4.4°C / -1.1°C 250º 4kt >10km - Overcast 5500ft 1014 - KHYA 252256Z 25004KT 10SM OVC055 04/M01 A2996 RMK AO2 SLP147 T00441011
VFR 5°C / -1.7°C 220º 5kt >10km - Overcast 5500ft 1013 - KHYA 252156Z 22005KT 10SM OVC055 05/M02 A2994 RMK AO2 SLP138 T00501017
VFR 5.6°C / -1.7°C 220º 6kt >10km - Broken Clouds 5000ft
Overcast 7500ft
1013 - KHYA 252056Z 22006KT 10SM BKN050 OVC075 06/M02 A2992 RMK AO2 SLP134 T00561017 53016
VFR 6.7°C / -1.7°C 260º 6kt >10km - Scattered Clouds 6000ft
Overcast 8000ft
1012 - KHYA 251956Z 26006KT 10SM SCT060 OVC080 07/M02 A2990 RMK AO2 SLP127 T00671017
VFR 7.2°C / -1.1°C 270º 6kt >10km - Overcast 7500ft 1012 - KHYA 251856Z 27006KT 10SM OVC075 07/M01 A2989 RMK AO2 SLP122 T00721011
VFR 7.8°C / -0.6°C 270º 7kt >10km - Overcast 8000ft 1011 - KHYA 251756Z 27007KT 10SM OVC080 08/M01 A2988 RMK AO2 SLP118 60000 T00781006 10078 20022 58003
VFR 6.7°C / 1.1°C 250º 8kt >10km - Overcast 5000ft 1012 - KHYA 251656Z 25008KT 10SM OVC050 07/01 A2989 RMK AO2 SLP122 T00670011
VFR 6.1°C / 2.8°C 220º 6kt >10km - Few Clouds 3900ft
Overcast 5000ft
1012 - KHYA 251556Z 22006KT 10SM FEW039 OVC050 06/03 A2989 RMK AO2 SLP124 T00610028
VFR 5.6°C / 2.2°C 220º 6kt >10km - Few Clouds 2900ft
Scattered Clouds 3900ft
Overcast 5500ft
- KHYA 251543Z 22006KT 10SM FEW029 SCT039 OVC055 06/02 A2990 RMK AO2 T00560022
MVFR 5°C / 1.7°C 190º 8kt >10km 0.13mm precipitation Few Clouds 2200ft
Overcast 2600ft
1012 - KHYA 251456Z 19008KT 10SM FEW022 OVC026 05/02 A2989 RMK AO2 RAE17 SLP122 P0000 60000 T00500017 53004
MVFR 5°C / 1.7°C variable 6kt >10km Light Rain 0.13mm precipitation Overcast 2500ft 1011 - KHYA 251356Z VRB06KT 8SM -RA OVC025 05/02 A2988 RMK AO2 RAB28 SLP119 P0000 T00500017
VFR 3.9°C / 1.1°C 140º 6kt >10km - Broken Clouds 3400ft
Broken Clouds 4100ft
Overcast 4900ft
1011 - KHYA 251256Z 14006KT 10SM BKN034 BKN041 OVC049 04/01 A2987 RMK AO2 SLP116 T00390011

VFR

-2.2°C / °C

[Plus]
Vent 330º 9kt Gust 19kt
Visibilité >10km
Météo -
Nuages Clear
Pression 1021
Changement -
Brut KHYA 261056Z 33009G19KT 10SM CLR M02/M11 A3015 RMK AO2 SLP210 T10221106

VFR

-1.7°C / °C

[Plus]
Vent 340º 12kt
Visibilité >10km
Météo -
Nuages Scattered Clouds 3900ft
Pression 1020
Changement -
Brut KHYA 260956Z AUTO 34012KT 10SM SCT039 M02/M10 A3013 RMK AO2 SLP204 T10171100

VFR

-1.7°C / -9.4°C

[Plus]
Vent 310º 8kt
Visibilité >10km
Météo -
Nuages Clear
Pression 1020
Changement -
Brut KHYA 260856Z AUTO 31008KT 10SM CLR M02/M09 A3012 RMK AO2 SLP200 T10171094 51015

VFR

-1.7°C / °C

[Plus]
Vent 300º 7kt
Visibilité >10km
Météo -
Nuages Clear
Pression 1019
Changement -
Brut KHYA 260756Z AUTO 30007KT 10SM CLR M02/M10 A3011 RMK AO2 SLP196 T10171100

VFR

-1.1°C / °C

[Plus]
Vent 320º 7kt
Visibilité >10km
Météo -
Nuages Clear
Pression 1018
Changement -
Brut KHYA 260656Z AUTO 32007KT 10SM CLR M01/M11 A3008 RMK AO2 SLP188 T10111106

VFR

-0.6°C / °C

[Plus]
Vent 320º 7kt
Visibilité >10km
Météo -
Nuages Clear
Pression 1018
Changement -
Brut KHYA 260556Z AUTO 32007KT 10SM CLR M01/M10 A3007 RMK AO2 SLP184 T10061100 10044 21006 51005

VFR

0°C / °C

[Plus]
Vent 320º 8kt
Visibilité >10km
Météo -
Nuages Clear
Pression 1018
Changement -
Brut KHYA 260456Z AUTO 32008KT 10SM CLR 00/M11 A3007 RMK AO2 SLP182 T00001106 400780000

VFR

0.6°C / °C

[Plus]
Vent 330º 9kt
Visibilité >10km
Météo -
Nuages Clear
Pression 1018
Changement -
Brut KHYA 260356Z AUTO 33009KT 10SM CLR 01/M11 A3006 RMK AO2 SLP181 T00061106

VFR

1.7°C / -8.3°C

[Plus]
Vent 330º 8kt Gust 17kt
Visibilité >10km
Météo -
Nuages Clear
Pression 1017
Changement -
Brut KHYA 260256Z 33008G17KT 10SM CLR 02/M08 A3006 RMK AO2 SLP179 T00171083 53024

VFR

2.2°C / -5°C

[Plus]
Vent 330º 7kt
Visibilité >10km
Météo -
Nuages Scattered Clouds 4400ft
Pression 1017
Changement -
Brut KHYA 260156Z 33007KT 10SM SCT044 02/M05 A3003 RMK AO2 SLP171 T00221050

VFR

3.3°C / -3.3°C

[Plus]
Vent 340º 6kt
Visibilité >10km
Météo -
Nuages Scattered Clouds 6000ft
Broken Clouds 7500ft
Pression 1016
Changement -
Brut KHYA 260056Z 34006KT 10SM SCT060 BKN075 03/M03 A3001 RMK AO2 SLP162 T00331033

VFR

4.4°C / -1.1°C

[Plus]
Vent variable 4kt
Visibilité >10km
Météo -
Nuages Overcast 5500ft
Pression 1015
Changement -
Brut KHYA 252356Z VRB04KT 10SM OVC055 04/M01 A2999 RMK AO2 SLP155 T00441011 10078 20039 53021

VFR

4.4°C / -1.1°C

[Plus]
Vent 250º 4kt
Visibilité >10km
Météo -
Nuages Overcast 5500ft
Pression 1014
Changement -
Brut KHYA 252256Z 25004KT 10SM OVC055 04/M01 A2996 RMK AO2 SLP147 T00441011

VFR

5°C / -1.7°C

[Plus]
Vent 220º 5kt
Visibilité >10km
Météo -
Nuages Overcast 5500ft
Pression 1013
Changement -
Brut KHYA 252156Z 22005KT 10SM OVC055 05/M02 A2994 RMK AO2 SLP138 T00501017

VFR

5.6°C / -1.7°C

[Plus]
Vent 220º 6kt
Visibilité >10km
Météo -
Nuages Broken Clouds 5000ft
Overcast 7500ft
Pression 1013
Changement -
Brut KHYA 252056Z 22006KT 10SM BKN050 OVC075 06/M02 A2992 RMK AO2 SLP134 T00561017 53016

VFR

6.7°C / -1.7°C

[Plus]
Vent 260º 6kt
Visibilité >10km
Météo -
Nuages Scattered Clouds 6000ft
Overcast 8000ft
Pression 1012
Changement -
Brut KHYA 251956Z 26006KT 10SM SCT060 OVC080 07/M02 A2990 RMK AO2 SLP127 T00671017

VFR

7.2°C / -1.1°C

[Plus]
Vent 270º 6kt
Visibilité >10km
Météo -
Nuages Overcast 7500ft
Pression 1012
Changement -
Brut KHYA 251856Z 27006KT 10SM OVC075 07/M01 A2989 RMK AO2 SLP122 T00721011

VFR

7.8°C / -0.6°C

[Plus]
Vent 270º 7kt
Visibilité >10km
Météo -
Nuages Overcast 8000ft
Pression 1011
Changement -
Brut KHYA 251756Z 27007KT 10SM OVC080 08/M01 A2988 RMK AO2 SLP118 60000 T00781006 10078 20022 58003

VFR

6.7°C / 1.1°C

[Plus]
Vent 250º 8kt
Visibilité >10km
Météo -
Nuages Overcast 5000ft
Pression 1012
Changement -
Brut KHYA 251656Z 25008KT 10SM OVC050 07/01 A2989 RMK AO2 SLP122 T00670011

VFR

6.1°C / 2.8°C

[Plus]
Vent 220º 6kt
Visibilité >10km
Météo -
Nuages Few Clouds 3900ft
Overcast 5000ft
Pression 1012
Changement -
Brut KHYA 251556Z 22006KT 10SM FEW039 OVC050 06/03 A2989 RMK AO2 SLP124 T00610028

VFR

5.6°C / 2.2°C

[Plus]
Vent 220º 6kt
Visibilité >10km
Météo -
Nuages Few Clouds 2900ft
Scattered Clouds 3900ft
Overcast 5500ft
Pression
Changement -
Brut KHYA 251543Z 22006KT 10SM FEW029 SCT039 OVC055 06/02 A2990 RMK AO2 T00560022

MVFR

5°C / 1.7°C

[Plus]
Vent 190º 8kt
Visibilité >10km
Météo 0.13mm precipitation
Nuages Few Clouds 2200ft
Overcast 2600ft
Pression 1012
Changement -
Brut KHYA 251456Z 19008KT 10SM FEW022 OVC026 05/02 A2989 RMK AO2 RAE17 SLP122 P0000 60000 T00500017 53004

MVFR

5°C / 1.7°C

[Plus]
Vent variable 6kt
Visibilité >10km
Météo Light Rain 0.13mm precipitation
Nuages Overcast 2500ft
Pression 1011
Changement -
Brut KHYA 251356Z VRB06KT 8SM -RA OVC025 05/02 A2988 RMK AO2 RAB28 SLP119 P0000 T00500017

VFR

3.9°C / 1.1°C

[Plus]
Vent 140º 6kt
Visibilité >10km
Météo -
Nuages Broken Clouds 3400ft
Broken Clouds 4100ft
Overcast 4900ft
Pression 1011
Changement -
Brut KHYA 251256Z 14006KT 10SM BKN034 BKN041 OVC049 04/01 A2987 RMK AO2 SLP116 T00390011

TAF pour Barnstable (KHYA)

From till


From till Wind 320º 11kt. Visibility 10km or more. Scattered Clouds 20000ft.
From till Wind 330º 14kt. Gust 18kt. Visibility 10km or more. Few Clouds 15000ft.
From till Wind 340º 13kt. Gust 21kt. Visibility 10km or more. Few Clouds 25000ft.
From till Wind 330º 11kt. Gust 18kt. Visibility 10km or more. Few Clouds 25000ft.
From till Wind 340º 8kt. Visibility 9700m. Mist . Scattered Clouds 25000ft.

Brut: KHYA 261124Z 2612/2712 32011KT P6SM SCT200 FM262000 33014G18KT P6SM FEW150 FM270300 34013G21KT P6SM FEW250 FM270500 33011G18KT P6SM FEW250 FM270900 34008KT 6SM BR SCT250

Radar et prévision de précipitation à court terme pour Barnstable

Bruine
Légère
Modéré
Fort
Très fort
Grêle

Le marqueur est placé sur Barnstable. Cette animation montre le Radar des précipitations pour les dernières heures, ainsi qu'une 1h prévision. La bruine ou les légères chutes de neiges peuvent ne pas être détectées par le radar. L'intensité des précipitations est visible avec un code couleur allant du bleu clair au violet foncé et orange.

Les images satellites pour Barnstable, États Unis

Le marqueur est placé sur Barnstable. [Plus]

L'image satellite en temps réel combine la lumière visible pendant la journée et le rayonnement infrarouge pendant la nuit. La nuit, l'image n'est pas sombre car le rayonnement infrarouge permet de détecter les différences de température. Malheureusement, les nuages bas et le brouillard sont difficiles à distinguer des températures au sol et peuvent donc être presque invisibles pendant la nuit. Les images des satellites Météosat pour l'Europe sont mises à jour en temps réel toutes les 5 minutes. Les images GOES-16/GOES-17 (Amérique du Nord et du Sud) et Himawari (Asie) sont mises à jour toutes les 10 minutes.